Time,TemperatureF,DewpointF,PressureIn,WindDirection,WindDirectionDegrees,WindSpeedMPH,WindSpeedGustMPH,Humidity,HourlyPrecipIn,Conditions,Clouds,dailyrainin,SoftwareType,DateUTC
2013-07-05 00:03:00,72.1,54.1,29.64,SSE,150,10.1,19.0,53,0.00,,,0.00,meteobridge,2013-07-05 06:03:00,
2013-07-05 00:08:00,72.1,54.5,29.64,SE,130,4.9,19.0,54,0.00,,,0.00,meteobridge,2013-07-05 06:08:00,
2013-07-05 00:13:00,72.0,54.9,29.65,South,178,12.1,12.1,55,0.00,,,0.00,meteobridge,2013-07-05 06:13:00,
2013-07-05 00:18:00,71.4,54.9,29.65,SE,124,6.9,16.1,56,0.00,,,0.00,meteobridge,2013-07-05 06:18:00,
2013-07-05 00:23:00,71.2,55.2,29.65,SE,140,6.9,15.0,57,0.00,,,0.00,meteobridge,2013-07-05 06:23:00,
2013-07-05 00:28:00,71.1,54.5,29.65,SSE,159,6.9,10.1,56,0.00,,,0.00,meteobridge,2013-07-05 06:28:00,
2013-07-05 00:33:00,71.4,53.4,29.65,ESE,117,4.9,11.0,53,0.00,,,0.00,meteobridge,2013-07-05 06:33:00,
2013-07-05 00:38:00,71.8,53.2,29.65,ESE,112,4.9,11.0,52,0.00,,,0.00,meteobridge,2013-07-05 06:38:00,
2013-07-05 00:43:00,71.8,53.2,29.65,SE,136,4.9,8.9,52,0.00,,,0.00,meteobridge,2013-07-05 06:43:00,
2013-07-05 00:48:00,71.4,53.4,29.65,SE,139,2.9,6.9,53,0.00,,,0.00,meteobridge,2013-07-05 06:48:00,
2013-07-05 00:53:00,71.2,52.7,29.65,SSE,159,2.0,6.9,52,0.00,,,0.00,meteobridge,2013-07-05 06:53:00,
2013-07-05 00:58:00,71.1,52.0,29.65,SE,144,2.0,4.9,51,0.00,,,0.00,meteobridge,2013-07-05 06:58:00,
2013-07-05 01:03:00,70.9,51.8,29.65,SE,146,2.0,4.0,51,0.00,,,0.00,meteobridge,2013-07-05 07:03:00,
2013-07-05 01:08:00,70.9,51.3,29.65,SSE,150,2.0,4.0,50,0.00,,,0.00,meteobridge,2013-07-05 07:08:00,
2013-07-05 01:13:00,70.9,50.7,29.65,SSE,150,2.0,6.0,49,0.00,,,0.00,meteobridge,2013-07-05 07:13:00,
2013-07-05 01:18:00,71.1,50.9,29.65,SSE,148,4.9,6.9,49,0.00,,,0.00,meteobridge,2013-07-05 07:18:00,
2013-07-05 01:23:00,71.1,51.4,29.65,SSE,148,2.0,4.9,50,0.00,,,0.00,meteobridge,2013-07-05 07:23:00,
2013-07-05 01:28:00,70.9,51.3,29.65,SSE,156,4.0,4.9,50,0.00,,,0.00,meteobridge,2013-07-05 07:28:00,
2013-07-05 01:33:00,70.5,51.4,29.65,SE,146,0.0,0.9,51,0.00,,,0.00,meteobridge,2013-07-05 07:33:00,
2013-07-05 01:38:00,70.3,51.4,29.65,SE,135,0.0,0.9,51,0.00,,,0.00,meteobridge,2013-07-05 07:38:00,
2013-07-05 01:43:00,70.2,51.3,29.65,SE,135,0.0,0.9,51,0.00,,,0.00,meteobridge,2013-07-05 07:43:00,
2013-07-05 01:48:00,70.0,51.1,29.65,SE,135,0.0,0.0,51,0.00,,,0.00,meteobridge,2013-07-05 07:48:00,
2013-07-05 01:54:00,69.4,51.6,29.65,SW,223,0.0,0.0,53,0.00,,,0.00,meteobridge,2013-07-05 07:54:00,
2013-07-05 01:59:00,69.4,51.1,29.64,South,184,0.9,2.0,52,0.00,,,0.00,meteobridge,2013-07-05 07:59:00,
2013-07-05 02:04:00,69.4,51.1,29.64,South,184,0.0,0.0,52,0.00,,,0.00,meteobridge,2013-07-05 08:04:00,
2013-07-05 02:10:00,69.4,51.6,29.64,South,184,0.0,0.9,53,0.00,,,0.00,meteobridge,2013-07-05 08:10:00,
2013-07-05 02:15:00,69.3,52.0,29.64,South,184,0.0,0.9,54,0.00,,,0.00,meteobridge,2013-07-05 08:15:00,
2013-07-05 02:20:00,69.4,54.0,29.63,South,184,0.0,0.9,58,0.00,,,0.00,meteobridge,2013-07-05 08:20:00,
2013-07-05 02:25:00,69.3,53.8,29.63,South,184,0.0,0.9,58,0.00,,,0.00,meteobridge,2013-07-05 08:25:00,
2013-07-05 02:30:00,69.1,53.6,29.62,South,182,0.0,0.9,58,0.00,,,0.00,meteobridge,2013-07-05 08:30:00,
2013-07-05 02:36:00,69.3,53.4,29.62,South,182,0.0,0.0,57,0.00,,,0.00,meteobridge,2013-07-05 08:36:00,
2013-07-05 02:41:00,69.3,52.3,29.62,South,182,0.0,0.0,55,0.00,,,0.00,meteobridge,2013-07-05 08:41:00,
2013-07-05 02:46:00,69.4,52.5,29.62,South,182,0.0,0.0,55,0.00,,,0.00,meteobridge,2013-07-05 08:46:00,
2013-07-05 02:51:00,69.6,51.8,29.62,South,182,0.0,0.0,53,0.00,,,0.00,meteobridge,2013-07-05 08:51:00,
2013-07-05 02:56:00,70.0,52.0,29.62,South,182,0.0,0.0,53,0.00,,,0.00,meteobridge,2013-07-05 08:56:00,
2013-07-05 03:01:00,69.8,52.0,29.61,South,182,0.0,0.0,53,0.00,,,0.00,meteobridge,2013-07-05 09:01:00,
2013-07-05 03:06:00,69.4,52.5,29.61,South,182,0.0,0.0,55,0.00,,,0.00,meteobridge,2013-07-05 09:06:00,
2013-07-05 03:11:00,69.3,52.3,29.61,South,182,0.0,0.0,55,0.00,,,0.00,meteobridge,2013-07-05 09:11:00,
2013-07-05 03:17:00,69.4,52.5,29.61,South,182,0.0,0.0,55,0.00,,,0.00,meteobridge,2013-07-05 09:17:00,
2013-07-05 03:22:00,69.8,50.9,29.61,South,182,0.0,0.0,51,0.00,,,0.00,meteobridge,2013-07-05 09:22:00,
2013-07-05 03:27:00,70.0,52.0,29.62,South,182,0.0,0.0,53,0.00,,,0.00,meteobridge,2013-07-05 09:27:00,
2013-07-05 03:32:00,69.8,52.3,29.62,South,182,0.0,0.0,54,0.00,,,0.00,meteobridge,2013-07-05 09:32:00,
2013-07-05 03:37:00,69.4,52.5,29.62,South,182,0.0,0.0,55,0.00,,,0.00,meteobridge,2013-07-05 09:37:00,
2013-07-05 03:42:00,69.4,52.5,29.62,South,182,0.0,0.0,55,0.00,,,0.00,meteobridge,2013-07-05 09:42:00,
2013-07-05 03:48:00,69.4,52.5,29.61,South,182,0.0,0.0,55,0.00,,,0.00,meteobridge,2013-07-05 09:48:00,
2013-07-05 03:53:00,69.4,54.0,29.60,SSE,151,0.0,2.9,58,0.00,,,0.00,meteobridge,2013-07-05 09:53:00,
2013-07-05 03:58:00,69.1,54.1,29.60,SSE,151,0.0,0.0,59,0.00,,,0.00,meteobridge,2013-07-05 09:58:00,
2013-07-05 04:03:00,69.3,54.3,29.61,SW,227,0.0,0.9,59,0.00,,,0.00,meteobridge,2013-07-05 10:03:00,
2013-07-05 04:09:00,69.3,54.3,29.62,WSW,253,0.0,0.9,59,0.00,,,0.00,meteobridge,2013-07-05 10:09:00,
2013-07-05 04:14:00,69.4,54.0,29.61,WSW,254,0.0,0.0,58,0.00,,,0.00,meteobridge,2013-07-05 10:14:00,
2013-07-05 04:19:00,69.4,54.5,29.62,WSW,253,0.0,0.0,59,0.00,,,0.00,meteobridge,2013-07-05 10:19:00,
2013-07-05 04:24:00,69.3,53.8,29.62,WSW,254,0.0,0.0,58,0.00,,,0.00,meteobridge,2013-07-05 10:24:00,
2013-07-05 04:29:00,69.6,53.2,29.62,WSW,253,0.0,0.0,56,0.00,,,0.00,meteobridge,2013-07-05 10:29:00,
2013-07-05 04:34:00,70.0,54.0,29.62,WSW,254,0.0,0.0,57,0.00,,,0.00,meteobridge,2013-07-05 10:34:00,
2013-07-05 04:39:00,69.8,54.0,29.61,WSW,254,0.0,0.0,57,0.00,,,0.00,meteobridge,2013-07-05 10:39:00,
2013-07-05 04:45:00,69.6,53.8,29.61,WSW,253,0.0,0.0,57,0.00,,,0.00,meteobridge,2013-07-05 10:45:00,
2013-07-05 04:50:00,69.4,54.0,29.61,WSW,253,0.0,0.0,58,0.00,,,0.00,meteobridge,2013-07-05 10:50:00,
2013-07-05 04:55:00,69.1,54.7,29.61,WSW,253,0.0,0.0,60,0.00,,,0.00,meteobridge,2013-07-05 10:55:00,
2013-07-05 05:00:00,69.3,52.9,29.61,WNW,302,0.0,0.9,56,0.00,,,0.00,meteobridge,2013-07-05 11:00:00,
2013-07-05 05:05:00,70.0,52.5,29.61,NNE,20,0.9,2.9,54,0.00,,,0.00,meteobridge,2013-07-05 11:05:00,
2013-07-05 05:10:00,70.2,52.7,29.61,NNE,20,0.0,0.9,54,0.00,,,0.00,meteobridge,2013-07-05 11:10:00,
2013-07-05 05:15:00,70.0,52.5,29.61,NNE,20,0.0,0.0,54,0.00,,,0.00,meteobridge,2013-07-05 11:15:00,
2013-07-05 05:20:00,70.0,53.6,29.61,NNE,20,0.0,0.0,56,0.00,,,0.00,meteobridge,2013-07-05 11:20:00,
2013-07-05 05:26:00,69.8,53.4,29.61,NNE,20,0.0,0.9,56,0.00,,,0.00,meteobridge,2013-07-05 11:26:00,
2013-07-05 05:31:00,69.8,52.9,29.61,NNE,20,0.0,0.0,55,0.00,,,0.00,meteobridge,2013-07-05 11:31:00,
2013-07-05 05:37:00,69.6,53.2,29.61,NNE,20,0.0,0.0,56,0.00,,,0.00,meteobridge,2013-07-05 11:37:00,
2013-07-05 05:43:00,69.1,53.6,29.61,NNE,20,0.0,0.0,58,0.00,,,0.00,meteobridge,2013-07-05 11:43:00,
2013-07-05 05:48:00,69.1,53.6,29.61,NNE,20,0.0,0.0,58,0.00,,,0.00,meteobridge,2013-07-05 11:48:00,
2013-07-05 05:53:00,68.7,53.8,29.61,NNE,20,0.0,0.0,59,0.00,,,0.00,meteobridge,2013-07-05 11:53:00,
2013-07-05 05:58:00,68.4,53.4,29.61,NNE,20,0.0,0.0,59,0.00,,,0.00,meteobridge,2013-07-05 11:58:00,
2013-07-05 06:03:00,68.2,54.1,29.61,NNE,20,0.0,0.0,61,0.00,,,0.00,meteobridge,2013-07-05 12:03:00,
2013-07-05 06:08:00,68.2,54.1,29.61,NNE,20,0.0,0.0,61,0.00,,,0.00,meteobridge,2013-07-05 12:08:00,
2013-07-05 06:14:00,67.6,55.0,29.61,NNE,20,0.0,0.0,64,0.00,,,0.00,meteobridge,2013-07-05 12:14:00,
2013-07-05 06:19:00,67.5,55.2,29.61,NNE,20,0.0,0.0,65,0.00,,,0.00,meteobridge,2013-07-05 12:19:00,
2013-07-05 06:24:00,67.5,55.2,29.62,NNE,20,0.0,0.0,65,0.00,,,0.00,meteobridge,2013-07-05 12:24:00,
2013-07-05 06:29:00,67.6,55.0,29.62,NNE,20,0.0,0.0,64,0.00,,,0.00,meteobridge,2013-07-05 12:29:00,
2013-07-05 06:34:00,67.8,55.6,29.62,NNE,20,0.0,0.0,65,0.00,,,0.00,meteobridge,2013-07-05 12:34:00,
2013-07-05 06:40:00,67.8,55.6,29.62,NNE,20,0.0,0.0,65,0.00,,,0.00,meteobridge,2013-07-05 12:40:00,
2013-07-05 06:45:00,68.0,56.3,29.62,NNE,20,0.0,0.0,66,0.00,,,0.00,meteobridge,2013-07-05 12:45:00,
2013-07-05 06:50:00,68.2,55.9,29.62,NNE,20,0.0,0.0,65,0.00,,,0.00,meteobridge,2013-07-05 12:50:00,
2013-07-05 06:55:00,68.2,56.3,29.62,East,90,0.9,2.0,66,0.00,,,0.00,meteobridge,2013-07-05 12:55:00,
2013-07-05 07:00:00,68.5,56.3,29.62,SE,136,0.9,2.0,65,0.00,,,0.00,meteobridge,2013-07-05 13:00:00,
2013-07-05 07:05:00,68.9,56.3,29.62,SE,136,0.0,0.9,64,0.00,,,0.00,meteobridge,2013-07-05 13:05:00,
2013-07-05 07:11:00,69.1,55.9,29.62,SE,136,0.0,0.9,63,0.00,,,0.00,meteobridge,2013-07-05 13:11:00,
2013-07-05 07:16:00,69.3,56.5,29.62,SE,136,0.0,0.0,64,0.00,,,0.00,meteobridge,2013-07-05 13:16:00,
2013-07-05 07:21:00,69.3,56.1,29.62,SE,136,0.0,0.9,63,0.00,,,0.00,meteobridge,2013-07-05 13:21:00,
2013-07-05 07:26:00,69.4,55.9,29.62,SE,136,0.0,0.0,62,0.00,,,0.00,meteobridge,2013-07-05 13:26:00,
2013-07-05 07:31:00,69.8,57.0,29.62,SE,136,0.0,0.0,64,0.00,,,0.00,meteobridge,2013-07-05 13:31:00,
2013-07-05 07:36:00,70.0,55.4,29.62,SE,136,0.0,0.0,60,0.00,,,0.00,meteobridge,2013-07-05 13:36:00,
2013-07-05 07:41:00,70.3,57.6,29.63,SE,136,0.0,0.0,64,0.00,,,0.00,meteobridge,2013-07-05 13:41:00,
2013-07-05 07:46:00,71.1,56.5,29.63,SE,136,0.0,0.0,60,0.00,,,0.00,meteobridge,2013-07-05 13:46:00,
2013-07-05 07:52:00,72.1,54.5,29.63,SE,136,0.0,0.9,54,0.00,,,0.00,meteobridge,2013-07-05 13:52:00,
2013-07-05 07:57:00,73.6,56.5,29.63,SE,136,0.9,0.9,55,0.00,,,0.00,meteobridge,2013-07-05 13:57:00,
2013-07-05 08:02:00,74.3,55.0,29.63,NNE,19,0.9,0.9,51,0.00,,,0.00,meteobridge,2013-07-05 14:02:00,
2013-07-05 08:07:00,74.7,55.4,29.63,NNE,18,0.0,0.9,51,0.00,,,0.00,meteobridge,2013-07-05 14:07:00,
2013-07-05 08:12:00,74.8,53.8,29.63,NNE,18,0.0,0.0,48,0.00,,,0.00,meteobridge,2013-07-05 14:12:00,
2013-07-05 08:18:00,75.6,52.2,29.63,SSW,213,0.0,0.0,44,0.00,,,0.00,meteobridge,2013-07-05 14:18:00,
2013-07-05 08:23:00,75.7,53.4,29.63,SSW,213,0.0,0.0,46,0.00,,,0.00,meteobridge,2013-07-05 14:23:00,
2013-07-05 08:28:00,75.4,54.3,29.63,SSW,213,0.0,0.0,48,0.00,,,0.00,meteobridge,2013-07-05 14:28:00,
2013-07-05 08:33:00,76.3,54.0,29.64,WSW,240,0.9,2.9,46,0.00,,,0.00,meteobridge,2013-07-05 14:33:00,
2013-07-05 08:38:00,76.6,54.3,29.64,WSW,239,0.0,0.0,46,0.00,,,0.00,meteobridge,2013-07-05 14:38:00,
2013-07-05 08:43:00,77.0,54.0,29.64,WNW,295,0.0,0.9,45,0.00,,,0.00,meteobridge,2013-07-05 14:43:00,
2013-07-05 08:48:00,77.9,53.6,29.63,WNW,292,0.0,2.0,43,0.00,,,0.00,meteobridge,2013-07-05 14:48:00,
2013-07-05 08:53:00,77.7,54.1,29.63,SW,230,2.0,2.0,44,0.00,,,0.00,meteobridge,2013-07-05 14:53:00,
2013-07-05 08:58:00,78.1,54.3,29.63,WSW,258,0.9,0.9,44,0.00,,,0.00,meteobridge,2013-07-05 14:58:00,
2013-07-05 09:03:00,78.3,53.2,29.63,South,184,2.0,4.9,42,0.00,,,0.00,meteobridge,2013-07-05 15:03:00,
2013-07-05 09:09:00,78.1,53.1,29.63,SW,228,2.9,4.0,42,0.00,,,0.00,meteobridge,2013-07-05 15:09:00,
2013-07-05 09:14:00,77.7,53.4,29.64,SW,216,0.0,0.9,43,0.00,,,0.00,meteobridge,2013-07-05 15:14:00,
2013-07-05 09:19:00,78.1,53.8,29.64,WSW,250,2.0,4.9,43,0.00,,,0.00,meteobridge,2013-07-05 15:19:00,
2013-07-05 09:24:00,78.4,52.7,29.64,SW,217,2.9,2.9,41,0.00,,,0.00,meteobridge,2013-07-05 15:24:00,
2013-07-05 09:29:00,78.3,53.2,29.64,SSE,165,2.9,2.9,42,0.00,,,0.00,meteobridge,2013-07-05 15:29:00,
2013-07-05 09:34:00,78.6,51.6,29.64,SSE,148,2.9,2.9,39,0.00,,,0.00,meteobridge,2013-07-05 15:34:00,
2013-07-05 09:39:00,79.5,53.1,29.64,SSE,152,4.0,4.0,40,0.00,,,0.00,meteobridge,2013-07-05 15:39:00,
2013-07-05 09:44:00,79.5,53.1,29.64,WSW,252,4.0,4.0,40,0.00,,,0.00,meteobridge,2013-07-05 15:44:00,
2013-07-05 09:49:00,79.9,53.4,29.64,SSW,198,0.9,6.9,40,0.00,,,0.00,meteobridge,2013-07-05 15:49:00,
2013-07-05 09:54:00,80.2,53.8,29.64,SSE,156,4.0,6.0,40,0.00,,,0.00,meteobridge,2013-07-05 15:54:00,
2013-07-05 09:59:00,80.1,52.9,29.63,SSE,149,0.0,4.0,39,0.00,,,0.00,meteobridge,2013-07-05 15:59:00,
2013-07-05 10:05:00,80.8,52.9,29.63,WNW,295,2.9,6.0,38,0.00,,,0.00,meteobridge,2013-07-05 16:05:00,
2013-07-05 10:10:00,80.4,52.5,29.63,SSE,167,4.0,4.9,38,0.00,,,0.00,meteobridge,2013-07-05 16:10:00,
2013-07-05 10:15:00,80.8,53.6,29.62,ENE,76,0.9,4.0,39,0.00,,,0.00,meteobridge,2013-07-05 16:15:00,
2013-07-05 10:20:00,81.1,53.1,29.63,SSE,166,0.9,6.9,38,0.00,,,0.00,meteobridge,2013-07-05 16:20:00,
2013-07-05 10:25:00,81.3,53.2,29.62,East,92,4.9,6.9,38,0.00,,,0.00,meteobridge,2013-07-05 16:25:00,
2013-07-05 10:30:00,81.7,52.9,29.62,South,178,4.0,4.9,37,0.00,,,0.00,meteobridge,2013-07-05 16:30:00,
2013-07-05 10:35:00,81.9,53.1,29.63,SSE,155,4.9,6.0,37,0.00,,,0.00,meteobridge,2013-07-05 16:35:00,
2013-07-05 10:40:00,82.2,53.4,29.62,SE,128,2.0,8.1,37,0.00,,,0.00,meteobridge,2013-07-05 16:40:00,
2013-07-05 10:45:00,82.9,53.2,29.62,SE,130,8.9,8.9,36,0.00,,,0.00,meteobridge,2013-07-05 16:45:00,
2013-07-05 10:50:00,82.8,52.3,29.62,South,173,0.0,6.9,35,0.00,,,0.00,meteobridge,2013-07-05 16:50:00,
2013-07-05 10:55:00,82.6,52.9,29.62,SE,144,2.0,2.0,36,0.00,,,0.00,meteobridge,2013-07-05 16:55:00,
2013-07-05 10:56:00,82.6,53.6,29.62,SSE,167,0.9,6.0,37,0.00,,,0.00,meteobridge,2013-07-05 16:56:00,
2013-07-05 11:01:00,83.5,52.9,29.62,SW,220,2.0,4.9,35,0.00,,,0.00,meteobridge,2013-07-05 17:01:00,
2013-07-05 11:06:00,83.7,54.7,29.62,SE,140,6.9,6.9,37,0.00,,,0.00,meteobridge,2013-07-05 17:06:00,
2013-07-05 11:11:00,83.7,55.4,29.61,South,175,0.9,4.9,38,0.00,,,0.00,meteobridge,2013-07-05 17:11:00,
2013-07-05 11:16:00,83.8,51.6,29.61,SW,221,2.0,4.9,33,0.00,,,0.00,meteobridge,2013-07-05 17:16:00,
2013-07-05 11:21:00,83.8,54.0,29.61,SSE,154,6.9,11.0,36,0.00,,,0.00,meteobridge,2013-07-05 17:21:00,
2013-07-05 11:26:00,83.8,55.6,29.60,SSE,153,4.9,8.1,38,0.00,,,0.00,meteobridge,2013-07-05 17:26:00,
2013-07-05 11:31:00,84.6,54.0,29.60,SE,146,4.9,10.1,35,0.00,,,0.00,meteobridge,2013-07-05 17:31:00,
2013-07-05 11:36:00,84.9,52.5,29.60,SSW,204,2.0,6.0,33,0.00,,,0.00,meteobridge,2013-07-05 17:36:00,
2013-07-05 11:41:00,84.9,53.4,29.60,East,100,2.9,8.9,34,0.00,,,0.00,meteobridge,2013-07-05 17:41:00,
2013-07-05 11:46:00,85.6,53.2,29.60,ESE,116,4.9,12.1,33,0.00,,,0.00,meteobridge,2013-07-05 17:46:00,
2013-07-05 11:51:00,85.5,53.1,29.59,ESE,118,4.0,6.9,33,0.00,,,0.00,meteobridge,2013-07-05 17:51:00,
2013-07-05 11:56:00,85.8,52.5,29.59,SSE,154,6.0,11.0,32,0.00,,,0.00,meteobridge,2013-07-05 17:56:00,
2013-07-05 11:57:00,85.8,52.5,29.59,SSE,157,6.9,11.0,32,0.00,,,0.00,meteobridge,2013-07-05 17:57:00,
2013-07-05 12:02:00,85.8,52.5,29.59,SSE,155,4.0,6.9,32,0.00,,,0.00,meteobridge,2013-07-05 18:02:00,
2013-07-05 12:07:00,86.2,52.9,29.59,SE,132,0.9,6.0,32,0.00,,,0.00,meteobridge,2013-07-05 18:07:00,
2013-07-05 12:12:00,87.1,52.7,29.59,ESE,115,2.9,6.9,31,0.00,,,0.00,meteobridge,2013-07-05 18:12:00,
2013-07-05 12:17:00,87.1,52.7,29.59,SW,215,6.0,11.0,31,0.00,,,0.00,meteobridge,2013-07-05 18:17:00,
2013-07-05 12:22:00,87.1,52.7,29.58,SSE,163,0.9,8.1,31,0.00,,,0.00,meteobridge,2013-07-05 18:22:00,
2013-07-05 12:27:00,87.1,52.7,29.58,ESE,111,2.9,8.9,31,0.00,,,0.00,meteobridge,2013-07-05 18:27:00,
2013-07-05 12:32:00,87.3,52.0,29.58,SSW,202,2.0,4.9,30,0.00,,,0.00,meteobridge,2013-07-05 18:32:00,
2013-07-05 12:37:00,87.4,52.2,29.58,East,87,0.9,8.1,30,0.00,,,0.00,meteobridge,2013-07-05 18:37:00,
2013-07-05 12:42:00,87.8,51.6,29.57,SE,130,4.9,10.1,29,0.00,,,0.00,meteobridge,2013-07-05 18:42:00,
2013-07-05 12:47:00,88.0,51.8,29.57,East,95,2.0,4.9,29,0.00,,,0.00,meteobridge,2013-07-05 18:47:00,
2013-07-05 12:52:00,88.3,51.1,29.57,SSE,153,0.0,11.0,28,0.00,,,0.00,meteobridge,2013-07-05 18:52:00,
2013-07-05 12:57:00,88.3,52.0,29.57,ESE,113,8.9,8.9,29,0.00,,,0.00,meteobridge,2013-07-05 18:57:00,
2013-07-05 13:02:00,88.9,50.5,29.57,East,92,4.9,8.1,27,0.00,,,0.00,meteobridge,2013-07-05 19:02:00,
2013-07-05 13:07:00,88.9,51.6,29.57,SSE,158,4.9,8.1,28,0.00,,,0.00,meteobridge,2013-07-05 19:07:00,
2013-07-05 13:12:00,89.2,50.9,29.56,SW,219,2.9,4.9,27,0.00,,,0.00,meteobridge,2013-07-05 19:12:00,
2013-07-05 13:17:00,89.8,51.3,29.56,SE,143,2.9,6.9,27,0.00,,,0.00,meteobridge,2013-07-05 19:17:00,
2013-07-05 13:22:00,89.6,51.3,29.56,SSW,192,2.0,8.9,27,0.00,,,0.00,meteobridge,2013-07-05 19:22:00,
2013-07-05 13:27:00,90.1,51.6,29.55,SSE,165,6.9,6.9,27,0.00,,,0.00,meteobridge,2013-07-05 19:27:00,
2013-07-05 13:32:00,90.5,49.8,29.55,SSE,166,2.0,8.9,25,0.00,,,0.00,meteobridge,2013-07-05 19:32:00,
2013-07-05 13:37:00,90.3,49.6,29.55,SSW,192,2.0,8.1,25,0.00,,,0.00,meteobridge,2013-07-05 19:37:00,
2013-07-05 13:42:00,91.0,52.3,29.55,SSW,199,6.0,10.1,27,0.00,,,0.00,meteobridge,2013-07-05 19:42:00,
2013-07-05 13:47:00,91.2,51.6,29.54,ENE,76,2.9,2.9,26,0.00,,,0.00,meteobridge,2013-07-05 19:47:00,
2013-07-05 13:52:00,91.0,49.3,29.54,SE,146,4.9,11.0,24,0.00,,,0.00,meteobridge,2013-07-05 19:52:00,
2013-07-05 13:57:00,90.1,49.6,29.54,SW,225,0.0,6.0,25,0.00,,,0.00,meteobridge,2013-07-05 19:57:00,
2013-07-05 14:02:00,92.1,51.3,29.53,SSW,210,0.9,2.9,25,0.00,,,0.00,meteobridge,2013-07-05 20:02:00,
2013-07-05 14:08:00,92.3,50.4,29.53,ESE,106,0.0,4.9,24,0.00,,,0.00,meteobridge,2013-07-05 20:08:00,
2013-07-05 14:13:00,93.6,50.2,29.52,NE,49,2.9,2.9,23,0.00,,,0.00,meteobridge,2013-07-05 20:13:00,
2013-07-05 14:18:00,93.7,50.4,29.52,SSE,167,8.1,8.1,23,0.00,,,0.00,meteobridge,2013-07-05 20:18:00,
2013-07-05 14:23:00,93.0,49.8,29.52,East,82,2.0,4.9,23,0.00,,,0.00,meteobridge,2013-07-05 20:23:00,
2013-07-05 14:28:00,93.0,50.9,29.51,East,85,2.0,6.0,24,0.00,,,0.00,meteobridge,2013-07-05 20:28:00,
2013-07-05 14:33:00,93.9,49.3,29.51,SE,128,2.0,6.9,22,0.00,,,0.00,meteobridge,2013-07-05 20:33:00,
2013-07-05 14:38:00,94.5,49.8,29.51,WSW,252,2.0,2.9,22,0.00,,,0.00,meteobridge,2013-07-05 20:38:00,
2013-07-05 14:43:00,94.6,49.8,29.50,SE,130,6.9,12.1,22,0.00,,,0.00,meteobridge,2013-07-05 20:43:00,
2013-07-05 14:48:00,94.8,50.0,29.50,SSW,211,4.0,11.0,22,0.00,,,0.00,meteobridge,2013-07-05 20:48:00,
2013-07-05 14:53:00,94.5,48.6,29.50,SSE,161,4.9,8.1,21,0.00,,,0.00,meteobridge,2013-07-05 20:53:00,
2013-07-05 14:58:00,95.2,50.4,29.49,SE,138,4.0,8.1,22,0.00,,,0.00,meteobridge,2013-07-05 20:58:00,
2013-07-05 15:03:00,94.5,48.6,29.49,SW,227,4.9,12.1,21,0.00,,,0.00,meteobridge,2013-07-05 21:03:00,
2013-07-05 15:08:00,94.6,49.8,29.50,East,99,2.9,8.9,22,0.00,,,0.00,meteobridge,2013-07-05 21:08:00,
2013-07-05 15:13:00,93.9,49.3,29.49,SE,128,6.0,11.0,22,0.00,,,0.00,meteobridge,2013-07-05 21:13:00,
2013-07-05 15:14:00,93.9,49.3,29.49,SW,216,8.1,11.0,22,0.00,,,0.00,meteobridge,2013-07-05 21:14:00,
2013-07-05 15:19:00,92.1,50.2,29.49,East,82,2.0,2.9,24,0.00,,,0.00,meteobridge,2013-07-05 21:19:00,
2013-07-05 15:24:00,91.9,50.0,29.49,South,183,2.9,2.9,24,0.00,,,0.00,meteobridge,2013-07-05 21:24:00,
2013-07-05 15:29:00,91.4,49.5,29.49,SE,143,6.0,6.9,24,0.00,,,0.00,meteobridge,2013-07-05 21:29:00,
2013-07-05 15:34:00,90.9,49.1,29.50,SE,146,0.9,4.9,24,0.00,,,0.00,meteobridge,2013-07-05 21:34:00,
2013-07-05 15:39:00,89.8,48.2,29.50,NW,306,0.9,6.0,24,0.00,,,0.00,meteobridge,2013-07-05 21:39:00,
2013-07-05 15:44:00,87.4,60.1,29.52,NNW,341,2.0,11.0,40,0.00,,,0.00,meteobridge,2013-07-05 21:44:00,
2013-07-05 15:49:00,79.9,59.5,29.52,North,5,13.0,15.0,50,0.05,,,0.05,meteobridge,2013-07-05 21:49:00,
2013-07-05 15:54:00,72.9,56.7,29.53,WNW,293,6.9,13.0,57,0.13,,,0.13,meteobridge,2013-07-05 21:54:00,
2013-07-05 15:59:00,70.0,59.0,29.55,NW,319,4.0,6.0,68,0.17,,,0.17,meteobridge,2013-07-05 21:59:00,
2013-07-05 16:04:00,68.4,59.4,29.55,NNW,333,2.0,4.0,73,0.22,,,0.22,meteobridge,2013-07-05 22:04:00,
2013-07-05 16:09:00,67.3,60.6,29.53,ESE,103,2.0,2.9,79,0.33,,,0.33,meteobridge,2013-07-05 22:09:00,
2013-07-05 16:14:00,66.7,60.4,29.52,East,91,2.0,4.9,80,0.37,,,0.37,meteobridge,2013-07-05 22:14:00,
2013-07-05 16:19:00,67.3,62.2,29.53,SE,141,0.0,4.0,84,0.39,,,0.39,meteobridge,2013-07-05 22:19:00,
2013-07-05 16:24:00,68.2,62.8,29.52,SSE,165,4.0,6.9,83,0.40,,,0.40,meteobridge,2013-07-05 22:24:00,
2013-07-05 16:29:00,69.1,63.7,29.51,SE,143,0.9,0.9,83,0.40,,,0.40,meteobridge,2013-07-05 22:29:00,
2013-07-05 16:34:00,69.4,63.7,29.50,SE,126,0.0,2.0,82,0.41,,,0.41,meteobridge,2013-07-05 22:34:00,
2013-07-05 16:39:00,70.3,62.1,29.49,SE,136,0.9,4.0,75,0.41,,,0.41,meteobridge,2013-07-05 22:39:00,
2013-07-05 16:44:00,70.3,63.5,29.48,SE,131,0.9,0.9,79,0.41,,,0.41,meteobridge,2013-07-05 22:44:00,
2013-07-05 16:49:00,70.2,64.0,29.48,East,82,0.9,2.0,81,0.33,,,0.41,meteobridge,2013-07-05 22:49:00,
2013-07-05 16:55:00,70.9,64.0,29.47,East,84,0.0,2.9,79,0.26,,,0.41,meteobridge,2013-07-05 22:55:00,
2013-07-05 16:56:00,70.9,64.0,29.47,East,84,0.0,0.9,79,0.26,,,0.41,meteobridge,2013-07-05 22:56:00,
2013-07-05 17:01:00,71.8,65.7,29.47,East,96,0.9,2.9,81,0.22,,,0.41,meteobridge,2013-07-05 23:01:00,
2013-07-05 17:06:00,73.2,63.7,29.46,East,96,2.9,4.9,72,0.13,,,0.41,meteobridge,2013-07-05 23:06:00,
2013-07-05 17:11:00,74.8,65.1,29.46,East,79,0.0,4.9,72,0.05,,,0.41,meteobridge,2013-07-05 23:11:00,
2013-07-05 17:16:00,76.1,63.5,29.46,NE,53,2.0,4.9,65,0.03,,,0.41,meteobridge,2013-07-05 23:16:00,
2013-07-05 17:21:00,77.4,66.7,29.46,East,90,0.9,2.0,70,0.02,,,0.41,meteobridge,2013-07-05 23:21:00,
2013-07-05 17:26:00,78.3,63.3,29.46,ENE,74,0.9,4.9,60,0.01,,,0.41,meteobridge,2013-07-05 23:26:00,
2013-07-05 17:31:00,79.2,62.6,29.46,ESE,111,0.0,2.0,57,0.00,,,0.41,meteobridge,2013-07-05 23:31:00,
2013-07-05 17:36:00,80.4,62.2,29.46,East,92,0.0,2.0,54,0.00,,,0.41,meteobridge,2013-07-05 23:36:00,
2013-07-05 17:41:00,81.5,64.8,29.46,East,99,0.9,2.0,57,0.00,,,0.41,meteobridge,2013-07-05 23:41:00,
2013-07-05 17:46:00,82.2,64.4,29.46,ESE,103,0.9,2.0,55,0.00,,,0.41,meteobridge,2013-07-05 23:46:00,
2013-07-05 17:47:00,82.6,64.8,29.46,ESE,103,0.9,2.0,55,0.00,,,0.41,meteobridge,2013-07-05 23:47:00,
2013-07-05 17:52:00,83.1,60.8,29.45,East,95,2.0,2.9,47,0.00,,,0.41,meteobridge,2013-07-05 23:52:00,
2013-07-05 17:57:00,84.0,59.2,29.46,SE,131,0.9,2.9,43,0.00,,,0.41,meteobridge,2013-07-05 23:57:00,
2013-07-05 18:02:00,84.9,61.9,29.46,ESE,115,0.0,2.0,46,0.00,,,0.41,meteobridge,2013-07-06 00:02:00,
2013-07-05 18:07:00,85.5,61.0,29.46,ESE,115,0.0,2.0,44,0.00,,,0.41,meteobridge,2013-07-06 00:07:00,
2013-07-05 18:13:00,85.8,58.6,29.47,ESE,116,0.9,2.0,40,0.00,,,0.41,meteobridge,2013-07-06 00:13:00,
2013-07-05 18:19:00,85.5,56.3,29.47,SSE,165,0.0,0.9,37,0.00,,,0.41,meteobridge,2013-07-06 00:19:00,
2013-07-05 18:23:00,85.1,56.7,29.47,SSE,165,0.0,0.0,38,0.00,,,0.41,meteobridge,2013-07-06 00:23:00,
2013-07-05 18:28:00,85.1,58.8,29.47,SSE,165,0.0,0.9,41,0.00,,,0.41,meteobridge,2013-07-06 00:28:00,
2013-07-05 18:33:00,84.6,56.1,29.47,SSE,165,0.0,0.9,38,0.00,,,0.41,meteobridge,2013-07-06 00:33:00,
2013-07-05 18:39:00,84.4,58.1,29.47,SSE,165,0.0,0.0,41,0.00,,,0.41,meteobridge,2013-07-06 00:39:00,
2013-07-05 18:44:00,84.0,56.5,29.48,SSE,165,0.0,0.0,39,0.00,,,0.41,meteobridge,2013-07-06 00:44:00,
2013-07-05 18:49:00,84.0,58.5,29.48,SSE,165,0.0,0.0,42,0.00,,,0.41,meteobridge,2013-07-06 00:49:00,
2013-07-05 18:54:00,83.3,60.4,29.48,SSE,165,0.0,0.0,46,0.00,,,0.41,meteobridge,2013-07-06 00:54:00,
2013-07-05 18:59:00,83.3,57.2,29.49,SSE,165,0.0,0.0,41,0.00,,,0.41,meteobridge,2013-07-06 00:59:00,
2013-07-05 19:04:00,82.9,58.1,29.49,SSE,165,0.0,0.0,43,0.00,,,0.41,meteobridge,2013-07-06 01:04:00,
2013-07-05 19:09:00,82.6,59.7,29.49,SSE,165,0.0,0.0,46,0.00,,,0.41,meteobridge,2013-07-06 01:09:00,
2013-07-05 19:14:00,82.0,57.9,29.49,SSE,165,0.0,0.0,44,0.00,,,0.41,meteobridge,2013-07-06 01:14:00,
2013-07-05 19:19:00,81.9,59.0,29.49,SSE,165,0.0,0.0,46,0.00,,,0.41,meteobridge,2013-07-06 01:19:00,
2013-07-05 19:25:00,81.3,57.9,29.50,SSE,165,0.0,0.0,45,0.00,,,0.41,meteobridge,2013-07-06 01:25:00,
2013-07-05 19:30:00,81.3,58.6,29.51,SW,222,6.0,6.0,46,0.00,,,0.41,meteobridge,2013-07-06 01:30:00,
2013-07-05 19:35:00,82.2,53.4,29.51,SSE,163,0.9,6.0,37,0.00,,,0.41,meteobridge,2013-07-06 01:35:00,
2013-07-05 19:40:00,82.6,52.9,29.51,South,178,2.9,6.9,36,0.00,,,0.41,meteobridge,2013-07-06 01:40:00,
2013-07-05 19:45:00,82.8,52.3,29.52,SW,219,6.9,10.1,35,0.00,,,0.41,meteobridge,2013-07-06 01:45:00,
2013-07-05 19:50:00,82.8,53.1,29.53,SW,224,2.9,10.1,36,0.00,,,0.41,meteobridge,2013-07-06 01:50:00,
2013-07-05 19:55:00,82.2,53.4,29.54,SSW,207,6.9,6.9,37,0.00,,,0.41,meteobridge,2013-07-06 01:55:00,
2013-07-05 20:00:00,81.5,53.4,29.54,SW,221,8.9,10.1,38,0.00,,,0.41,meteobridge,2013-07-06 02:00:00,
2013-07-05 20:05:00,80.8,54.1,29.55,SW,236,0.9,6.9,40,0.00,,,0.41,meteobridge,2013-07-06 02:05:00,
2013-07-05 20:10:00,79.9,55.9,29.56,WNW,283,4.0,6.0,44,0.00,,,0.41,meteobridge,2013-07-06 02:10:00,
2013-07-05 20:11:00,79.9,55.9,29.56,West,277,2.0,6.0,44,0.00,,,0.41,meteobridge,2013-07-06 02:11:00,
2013-07-05 20:16:00,78.1,57.4,29.56,WSW,256,2.9,6.9,49,0.01,,,0.42,meteobridge,2013-07-06 02:16:00,
2013-07-05 20:21:00,75.7,60.4,29.57,NNW,333,0.0,4.0,59,0.01,,,0.42,meteobridge,2013-07-06 02:21:00,
2013-07-05 20:26:00,73.8,59.0,29.57,NNW,329,4.0,12.1,60,0.02,,,0.43,meteobridge,2013-07-06 02:26:00,
2013-07-05 20:31:00,73.0,58.8,29.58,NW,321,4.0,4.0,61,0.02,,,0.43,meteobridge,2013-07-06 02:31:00,
2013-07-05 20:36:00,72.9,58.1,29.59,NNW,342,4.9,8.1,60,0.02,,,0.43,meteobridge,2013-07-06 02:36:00,
2013-07-05 20:41:00,72.5,58.3,29.59,NNE,28,6.9,16.1,61,0.02,,,0.43,meteobridge,2013-07-06 02:41:00,
2013-07-05 20:46:00,72.1,58.5,29.60,North,355,4.9,10.1,62,0.02,,,0.43,meteobridge,2013-07-06 02:46:00,
2013-07-05 20:51:00,72.0,59.2,29.61,North,355,2.9,6.0,64,0.02,,,0.43,meteobridge,2013-07-06 02:51:00,
2013-07-05 20:56:00,72.0,59.5,29.61,NNW,340,4.0,6.9,65,0.02,,,0.43,meteobridge,2013-07-06 02:56:00,
2013-07-05 20:57:00,72.0,59.2,29.61,North,9,2.0,6.9,64,0.02,,,0.43,meteobridge,2013-07-06 02:57:00,
2013-07-05 21:02:00,72.1,59.4,29.61,NNE,18,6.0,6.9,64,0.02,,,0.43,meteobridge,2013-07-06 03:02:00,
2013-07-05 21:07:00,71.8,60.3,29.61,NNE,30,2.0,6.0,67,0.02,,,0.43,meteobridge,2013-07-06 03:07:00,
2013-07-05 21:12:00,71.4,60.3,29.61,NNE,30,4.0,8.1,68,0.02,,,0.43,meteobridge,2013-07-06 03:12:00,
2013-07-05 21:17:00,70.9,61.0,29.61,North,5,0.9,2.9,71,0.02,,,0.44,meteobridge,2013-07-06 03:17:00,
2013-07-05 21:22:00,70.3,61.7,29.62,North,0,0.0,2.0,74,0.01,,,0.44,meteobridge,2013-07-06 03:22:00,
2013-07-05 21:27:00,69.8,62.6,29.62,North,0,0.0,0.0,78,0.01,,,0.44,meteobridge,2013-07-06 03:27:00,
2013-07-05 21:32:00,69.3,62.8,29.62,North,0,0.0,0.0,80,0.01,,,0.44,meteobridge,2013-07-06 03:32:00,
2013-07-05 21:37:00,68.5,63.5,29.63,North,0,0.0,0.0,84,0.01,,,0.44,meteobridge,2013-07-06 03:37:00,
2013-07-05 21:42:00,68.5,63.9,29.64,North,0,0.9,0.9,85,0.01,,,0.44,meteobridge,2013-07-06 03:42:00,
2013-07-05 21:44:00,68.7,63.7,29.64,North,0,0.0,0.9,84,0.01,,,0.44,meteobridge,2013-07-06 03:44:00,
2013-07-05 21:49:00,69.3,64.2,29.64,North,0,0.0,0.0,84,0.01,,,0.44,meteobridge,2013-07-06 03:49:00,
2013-07-05 21:54:00,69.1,64.8,29.65,North,350,0.9,0.9,86,0.01,,,0.44,meteobridge,2013-07-06 03:54:00,
2013-07-05 21:59:00,69.1,64.8,29.65,North,350,0.0,0.9,86,0.02,,,0.45,meteobridge,2013-07-06 03:59:00,
2013-07-05 22:01:00,69.1,65.1,29.65,North,355,0.0,0.9,87,0.02,,,0.45,meteobridge,2013-07-06 04:01:00,
2013-07-05 22:02:00,69.1,65.1,29.65,NW,306,2.0,2.9,87,0.02,,,0.45,meteobridge,2013-07-06 04:02:00,
2013-07-05 22:07:00,67.8,63.5,29.66,NW,309,0.0,2.0,86,0.03,,,0.46,meteobridge,2013-07-06 04:07:00,
2013-07-05 22:12:00,67.3,63.3,29.66,WNW,296,0.0,0.9,87,0.03,,,0.46,meteobridge,2013-07-06 04:12:00,
2013-07-05 22:17:00,67.1,63.7,29.66,NNW,338,0.9,0.9,89,0.02,,,0.46,meteobridge,2013-07-06 04:17:00,
2013-07-05 22:22:00,66.9,63.5,29.66,NNW,338,0.9,0.9,89,0.03,,,0.47,meteobridge,2013-07-06 04:22:00,
2013-07-05 22:27:00,66.9,63.5,29.66,ENE,57,0.0,2.0,89,0.03,,,0.47,meteobridge,2013-07-06 04:27:00,
2013-07-05 22:32:00,66.9,63.9,29.65,ESE,123,0.9,2.0,90,0.03,,,0.47,meteobridge,2013-07-06 04:32:00,
2013-07-05 22:37:00,67.1,64.4,29.65,SE,142,0.0,2.0,91,0.03,,,0.47,meteobridge,2013-07-06 04:37:00,
2013-07-05 22:42:00,67.5,65.1,29.66,ESE,120,0.0,0.0,92,0.04,,,0.48,meteobridge,2013-07-06 04:42:00,
2013-07-05 22:48:00,67.5,65.1,29.67,SSW,209,0.0,0.9,92,0.04,,,0.48,meteobridge,2013-07-06 04:48:00,
2013-07-05 22:53:00,67.5,65.1,29.67,SSW,210,0.0,0.9,92,0.05,,,0.49,meteobridge,2013-07-06 04:53:00,
2013-07-05 22:58:00,67.5,65.3,29.66,South,171,0.0,0.0,93,0.04,,,0.49,meteobridge,2013-07-06 04:58:00,
2013-07-05 23:03:00,67.6,65.3,29.66,SE,136,0.9,4.0,92,0.04,,,0.50,meteobridge,2013-07-06 05:03:00,
2013-07-05 23:08:00,67.5,64.8,29.66,SSE,157,0.0,0.9,91,0.04,,,0.50,meteobridge,2013-07-06 05:08:00,
2013-07-05 23:14:00,67.5,64.0,29.66,South,186,0.9,2.0,89,0.04,,,0.50,meteobridge,2013-07-06 05:14:00,
2013-07-05 23:19:00,67.5,64.0,29.66,SSE,161,0.0,0.0,89,0.03,,,0.50,meteobridge,2013-07-06 05:19:00,
2013-07-05 23:24:00,67.3,63.9,29.66,SSE,161,0.0,2.0,89,0.03,,,0.50,meteobridge,2013-07-06 05:24:00,
2013-07-05 23:29:00,66.9,63.9,29.66,SSE,161,0.0,0.0,90,0.03,,,0.50,meteobridge,2013-07-06 05:29:00,
2013-07-05 23:35:00,67.1,64.4,29.66,SSE,161,0.0,0.0,91,0.04,,,0.51,meteobridge,2013-07-06 05:35:00,
2013-07-05 23:40:00,66.9,64.2,29.66,SSE,161,0.0,0.0,91,0.03,,,0.51,meteobridge,2013-07-06 05:40:00,
2013-07-05 23:45:00,66.9,64.2,29.66,SE,132,0.9,2.0,91,0.03,,,0.51,meteobridge,2013-07-06 05:45:00,
2013-07-05 23:51:00,67.1,64.4,29.66,SE,140,0.0,0.9,91,0.03,,,0.51,meteobridge,2013-07-06 05:51:00,
2013-07-05 23:56:00,67.3,64.2,29.66,SSE,153,0.0,2.0,90,0.02,,,0.51,meteobridge,2013-07-06 05:56:00,